createdAt,value
2023-02-08T00:00:59.604Z,51.51
2023-02-08T00:03:29.111Z,51.57
2023-02-08T00:05:56.643Z,51.23
2023-02-08T00:08:24.036Z,51.05
2023-02-08T00:10:51.761Z,51.56
2023-02-08T00:13:19.397Z,51.19
2023-02-08T00:15:47.243Z,51.07
2023-02-08T00:18:15.120Z,51.28
2023-02-08T00:20:43.400Z,51.75
2023-02-08T00:23:11.475Z,52.36
2023-02-08T00:25:39.880Z,52.25
2023-02-08T00:28:09.481Z,51.75
2023-02-08T00:30:37.170Z,51.73
2023-02-08T00:33:05.110Z,51.91
2023-02-08T00:35:32.600Z,51.75
2023-02-08T00:38:00.111Z,51.89
2023-02-08T00:40:28.263Z,51.67
2023-02-08T00:42:57.770Z,51.96
2023-02-08T00:45:25.256Z,52.39
2023-02-08T00:47:53.049Z,52.25
2023-02-08T00:50:21.393Z,51.84
2023-02-08T00:52:48.813Z,51.99
2023-02-08T00:55:16.605Z,51.94
2023-02-08T00:57:44.036Z,52.14
2023-02-08T01:00:12.058Z,51.61
2023-02-08T01:02:39.771Z,51.51
2023-02-08T01:05:07.425Z,51.28
2023-02-08T01:07:37.493Z,50.87
2023-02-08T01:10:06.419Z,50.55
2023-02-08T01:12:35.243Z,50.77
2023-02-08T01:15:02.710Z,50.48
2023-02-08T01:17:31.180Z,50.34
2023-02-08T01:19:58.576Z,50.36
2023-02-08T01:22:26.034Z,50.62
2023-02-08T01:24:53.718Z,50.44
2023-02-08T01:27:21.099Z,50.97
2023-02-08T01:29:48.442Z,50.43
2023-02-08T01:32:16.122Z,50.56
2023-02-08T01:34:44.282Z,50.65
2023-02-08T01:37:11.914Z,50.21
2023-02-08T01:39:39.607Z,50.25
2023-02-08T01:42:07.038Z,50.36
2023-02-08T01:45:11.906Z,50.06
2023-02-08T01:47:39.692Z,49.80
2023-02-08T01:50:07.318Z,49.39
2023-02-08T01:52:34.854Z,48.79
2023-02-08T01:55:10.163Z,49.11
2023-02-08T01:57:37.699Z,49.27
2023-02-08T02:00:15.232Z,49.00
2023-02-08T02:02:44.377Z,49.03
2023-02-08T02:05:12.427Z,48.68
2023-02-08T02:07:39.999Z,48.67
2023-02-08T02:10:25.714Z,48.57
2023-02-08T02:12:55.928Z,48.85
2023-02-08T02:15:23.690Z,49.16
2023-02-08T02:17:51.422Z,48.83
2023-02-08T02:20:22.873Z,49.32
2023-02-08T02:23:16.858Z,49.57
2023-02-08T02:26:11.036Z,49.26
2023-02-08T02:28:47.619Z,49.22
2023-02-08T02:31:15.312Z,49.51
2023-02-08T02:33:48.727Z,49.93
2023-02-08T02:37:02.942Z,49.82
2023-02-08T02:39:34.252Z,50.09
2023-02-08T02:42:29.445Z,49.89
2023-02-08T02:45:02.763Z,49.74
2023-02-08T02:47:38.994Z,50.14
2023-02-08T02:50:32.246Z,50.15
2023-02-08T02:53:26.787Z,50.28
2023-02-08T02:56:02.007Z,50.20
2023-02-08T02:58:31.294Z,50.09
2023-02-08T03:00:59.416Z,49.44
2023-02-08T03:03:28.789Z,48.92
2023-02-08T03:05:59.979Z,49.27
2023-02-08T03:08:33.560Z,49.25
2023-02-08T03:11:11.056Z,49.71
2023-02-08T03:14:01.048Z,48.80
2023-02-08T03:16:38.459Z,48.48
2023-02-08T03:19:24.501Z,48.66
2023-02-08T03:21:59.286Z,48.64
2023-02-08T03:24:26.665Z,48.23
2023-02-08T03:27:03.822Z,47.90
2023-02-08T03:30:08.454Z,48.24
2023-02-08T03:32:40.455Z,48.63
2023-02-08T03:35:11.781Z,48.62
2023-02-08T03:37:47.755Z,48.44
2023-02-08T03:40:22.862Z,48.15
2023-02-08T03:42:53.085Z,48.36
2023-02-08T03:45:24.134Z,48.17
2023-02-08T03:47:53.457Z,47.79
2023-02-08T03:50:21.781Z,47.85
2023-02-08T03:52:50.796Z,47.64
2023-02-08T03:55:22.234Z,47.97
2023-02-08T03:58:05.278Z,48.46
2023-02-08T04:00:36.654Z,48.55
2023-02-08T04:03:12.338Z,48.50
2023-02-08T04:05:40.085Z,48.36
2023-02-08T04:08:07.936Z,48.14
2023-02-08T04:10:35.291Z,48.18
2023-02-08T04:13:02.727Z,47.88
2023-02-08T04:15:31.081Z,47.91
2023-02-08T04:17:58.564Z,47.71
2023-02-08T04:20:25.976Z,47.76
2023-02-08T04:22:53.675Z,47.19
2023-02-08T04:25:21.247Z,47.16
2023-02-08T04:27:48.696Z,47.11
2023-02-08T04:30:16.497Z,46.72
2023-02-08T04:32:44.196Z,46.30
2023-02-08T04:35:11.557Z,46.64
2023-02-08T04:37:39.226Z,46.83
2023-02-08T04:40:06.887Z,46.78
2023-02-08T04:42:35.036Z,46.67
2023-02-08T04:45:02.801Z,46.26
2023-02-08T04:47:30.236Z,46.46
2023-02-08T04:49:57.641Z,46.51
2023-02-08T04:52:25.302Z,46.88
2023-02-08T04:54:52.658Z,47.10
2023-02-08T04:57:20.090Z,46.58
2023-02-08T04:59:47.931Z,46.76
2023-02-08T05:02:15.343Z,46.77
2023-02-08T05:04:42.715Z,46.04
2023-02-08T05:07:10.360Z,46.22
2023-02-08T05:09:37.748Z,46.05
2023-02-08T05:12:05.316Z,46.48
2023-02-08T05:14:33.000Z,46.36
2023-02-08T05:17:00.420Z,46.55
2023-02-08T05:19:27.904Z,46.41
2023-02-08T05:21:55.584Z,46.52
2023-02-08T05:24:23.039Z,46.51
2023-02-08T05:26:50.575Z,46.74
2023-02-08T05:29:18.234Z,47.04
2023-02-08T05:31:45.717Z,46.84
2023-02-08T05:34:13.158Z,46.75
2023-02-08T05:36:40.801Z,46.91
2023-02-08T05:39:08.513Z,47.20
2023-02-08T05:41:36.138Z,47.38
2023-02-08T05:44:03.865Z,47.04
2023-02-08T05:46:31.353Z,46.81
2023-02-08T05:48:58.833Z,46.97
2023-02-08T05:51:26.664Z,47.00
2023-02-08T05:53:54.072Z,47.00
2023-02-08T05:56:21.447Z,47.19
2023-02-08T05:58:49.118Z,47.25
2023-02-08T06:01:16.569Z,47.21
2023-02-08T06:03:44.236Z,47.19
2023-02-08T06:06:11.855Z,46.84
2023-02-08T06:08:40.206Z,46.89
2023-02-08T06:11:08.020Z,46.90
2023-02-08T06:13:35.457Z,47.04
2023-02-08T06:16:02.874Z,47.03
2023-02-08T06:18:30.529Z,47.24
2023-02-08T06:20:58.063Z,47.24
2023-02-08T06:23:25.494Z,46.83
2023-02-08T06:25:53.545Z,46.68
2023-02-08T06:28:20.979Z,46.07
2023-02-08T06:30:52.048Z,45.91
2023-02-08T06:33:19.769Z,45.91
2023-02-08T06:35:48.137Z,46.12
2023-02-08T06:38:15.593Z,45.22
2023-02-08T06:40:43.533Z,45.27
2023-02-08T06:43:11.295Z,45.46
2023-02-08T06:45:38.700Z,45.04
2023-02-08T06:48:06.442Z,45.11
2023-02-08T06:50:33.995Z,45.08
2023-02-08T06:53:01.435Z,44.95
2023-02-08T06:55:29.131Z,44.82
2023-02-08T06:57:56.866Z,44.44
2023-02-08T07:00:24.327Z,44.34
2023-02-08T07:02:52.646Z,44.26
2023-02-08T07:05:20.023Z,43.89
2023-02-08T07:07:48.750Z,43.91
2023-02-08T07:10:16.925Z,43.89
2023-02-08T07:12:44.345Z,43.81
2023-02-08T07:15:13.322Z,43.65
2023-02-08T07:17:41.126Z,43.45
2023-02-08T07:20:09.618Z,42.54
2023-02-08T07:22:37.600Z,42.84
2023-02-08T07:25:07.212Z,42.84
2023-02-08T07:27:35.629Z,42.46
2023-02-08T07:30:03.431Z,42.18
2023-02-08T07:32:33.689Z,42.08
2023-02-08T07:35:02.060Z,41.84
2023-02-08T07:37:29.445Z,42.17
2023-02-08T07:39:57.152Z,42.06
2023-02-08T07:42:24.513Z,42.03
2023-02-08T07:44:52.662Z,41.74
2023-02-08T07:47:20.458Z,41.77
2023-02-08T07:49:47.878Z,41.79
2023-02-08T07:52:15.408Z,41.90
2023-02-08T07:54:43.073Z,41.76
2023-02-08T07:57:10.468Z,41.40
2023-02-08T07:59:37.865Z,41.61
2023-02-08T08:02:05.573Z,41.54
2023-02-08T08:04:33.322Z,41.11
2023-02-08T08:07:00.736Z,41.13
2023-02-08T08:09:28.219Z,41.66
2023-02-08T08:11:55.925Z,41.52
2023-02-08T08:14:23.314Z,41.86
2023-02-08T08:16:50.674Z,41.71
2023-02-08T08:19:18.381Z,41.53
2023-02-08T08:21:45.837Z,41.62
2023-02-08T08:24:13.182Z,41.42
2023-02-08T08:26:40.947Z,41.37
2023-02-08T08:29:08.378Z,41.37
2023-02-08T08:31:36.843Z,41.83
2023-02-08T08:34:04.567Z,41.58
2023-02-08T08:36:32.203Z,41.68
2023-02-08T08:38:59.570Z,41.79
2023-02-08T08:41:28.276Z,42.63
2023-02-08T08:43:55.943Z,42.26
2023-02-08T08:46:23.421Z,42.06
2023-02-08T08:48:52.063Z,41.54
2023-02-08T08:51:19.794Z,41.70
2023-02-08T08:53:47.218Z,41.68
2023-02-08T08:56:14.877Z,41.37
2023-02-08T08:58:43.389Z,41.37
2023-02-08T09:01:10.880Z,42.02
2023-02-08T09:03:38.611Z,41.55
2023-02-08T09:06:06.250Z,41.35
2023-02-08T09:08:33.703Z,41.33
2023-02-08T09:11:08.751Z,41.43
2023-02-08T09:13:36.391Z,41.83
2023-02-08T09:16:17.635Z,42.13
2023-02-08T09:18:45.661Z,41.83
2023-02-08T09:21:15.961Z,41.64
2023-02-08T09:23:43.722Z,41.95
2023-02-08T09:26:12.948Z,41.69
2023-02-08T09:28:40.698Z,41.57
2023-02-08T09:31:31.879Z,41.26
2023-02-08T09:34:00.895Z,41.79
2023-02-08T09:36:40.648Z,41.75
2023-02-08T09:39:14.933Z,41.80
2023-02-08T09:42:20.847Z,42.13
2023-02-08T09:45:10.054Z,42.25
2023-02-08T09:48:01.162Z,42.06
2023-02-08T09:50:42.728Z,42.86
2023-02-08T09:53:24.778Z,42.00
2023-02-08T09:56:07.514Z,42.26
2023-02-08T09:58:41.863Z,42.18
2023-02-08T10:01:19.339Z,41.92
2023-02-08T10:03:47.417Z,41.44
2023-02-08T10:06:17.083Z,40.65
2023-02-08T10:08:45.398Z,40.41
2023-02-08T10:11:29.205Z,40.80
2023-02-08T10:14:23.186Z,40.87
2023-02-08T10:16:53.813Z,40.36
2023-02-08T10:19:42.241Z,40.01
2023-02-08T10:22:21.707Z,40.34
2023-02-08T10:24:57.926Z,39.82
2023-02-08T10:28:02.754Z,39.73
2023-02-08T10:30:42.250Z,39.79
2023-02-08T10:33:21.727Z,39.43
2023-02-08T10:35:50.776Z,39.27
2023-02-08T10:38:21.125Z,39.65
2023-02-08T10:40:52.326Z,39.89
2023-02-08T10:43:19.937Z,39.81
2023-02-08T10:45:49.728Z,39.83
2023-02-08T10:48:35.422Z,39.98
2023-02-08T10:51:03.750Z,39.49
2023-02-08T10:53:31.346Z,39.57
2023-02-08T10:55:58.730Z,39.18
2023-02-08T10:58:26.720Z,38.96
2023-02-08T11:00:54.334Z,38.44
2023-02-08T11:03:24.396Z,38.54
2023-02-08T11:05:52.881Z,38.68
2023-02-08T11:08:25.109Z,39.08
2023-02-08T11:11:03.965Z,38.62
2023-02-08T11:13:41.550Z,38.80
2023-02-08T11:16:20.644Z,38.73
2023-02-08T11:18:49.367Z,38.41
2023-02-08T11:21:33.442Z,37.94
2023-02-08T11:24:28.975Z,38.31
2023-02-08T11:26:56.748Z,38.10
2023-02-08T11:29:29.546Z,37.69
2023-02-08T11:32:00.784Z,37.70
2023-02-08T11:34:33.623Z,37.47
2023-02-08T11:37:04.696Z,37.71
2023-02-08T11:39:45.998Z,37.54
2023-02-08T11:42:21.242Z,37.34
2023-02-08T11:44:49.634Z,37.64
2023-02-08T11:47:40.714Z,37.58
2023-02-08T11:50:09.101Z,37.51
2023-02-08T11:52:39.380Z,36.48
2023-02-08T11:55:18.954Z,36.89
2023-02-08T11:58:14.347Z,36.88
2023-02-08T12:00:41.736Z,37.03
2023-02-08T12:03:20.409Z,36.59
2023-02-08T12:05:57.691Z,36.46
2023-02-08T12:08:46.310Z,35.96
2023-02-08T12:11:25.242Z,36.18
2023-02-08T12:14:11.666Z,35.76
2023-02-08T12:16:45.579Z,35.20
2023-02-08T12:19:32.230Z,35.24
2023-02-08T12:22:10.457Z,35.13
2023-02-08T12:24:49.409Z,35.32
2023-02-08T12:27:41.749Z,35.78
2023-02-08T12:30:19.058Z,35.56
2023-02-08T12:33:01.199Z,35.72
2023-02-08T12:36:04.090Z,36.68
2023-02-08T12:39:18.457Z,35.98
2023-02-08T12:42:02.725Z,36.51
2023-02-08T12:44:32.992Z,36.53
2023-02-08T12:47:20.459Z,36.89
2023-02-08T12:50:08.200Z,36.52
2023-02-08T12:52:43.836Z,36.12
2023-02-08T12:55:29.382Z,35.11
2023-02-08T12:58:30.389Z,34.97
2023-02-08T13:01:06.653Z,34.84
2023-02-08T13:03:43.564Z,35.13
2023-02-08T13:06:16.882Z,35.50
2023-02-08T13:08:57.683Z,35.45
2023-02-08T13:11:38.191Z,35.20
2023-02-08T13:14:13.592Z,35.15
2023-02-08T13:16:47.258Z,35.37
2023-02-08T13:19:29.733Z,35.52
2023-02-08T13:21:58.815Z,34.95
2023-02-08T13:24:38.727Z,34.45
2023-02-08T13:27:08.101Z,34.26
2023-02-08T13:29:36.273Z,34.11
2023-02-08T13:32:07.009Z,33.59
2023-02-08T13:34:38.730Z,33.58
2023-02-08T13:37:24.891Z,33.66
2023-02-08T13:40:26.213Z,33.65
2023-02-08T13:43:06.635Z,33.87
2023-02-08T13:45:42.865Z,33.94
2023-02-08T13:48:17.006Z,34.15
2023-02-08T13:50:51.884Z,34.43
2023-02-08T13:53:39.898Z,34.89
2023-02-08T13:56:12.694Z,35.00
2023-02-08T13:58:49.697Z,34.66
2023-02-08T14:01:28.771Z,34.77
2023-02-08T14:04:08.743Z,34.85
2023-02-08T14:06:48.302Z,34.85
2023-02-08T14:09:51.477Z,33.95
2023-02-08T14:12:32.594Z,34.07
2023-02-08T14:15:24.680Z,34.70
2023-02-08T14:17:56.654Z,35.15
2023-02-08T14:20:40.440Z,35.10
2023-02-08T14:23:30.660Z,35.10
2023-02-08T14:26:03.451Z,34.36
2023-02-08T14:28:38.746Z,34.68
2023-02-08T14:31:09.082Z,34.45
2023-02-08T14:33:39.742Z,34.60
2023-02-08T14:36:21.995Z,34.75
2023-02-08T14:39:05.326Z,34.32
2023-02-08T14:41:51.120Z,33.89
2023-02-08T14:44:48.846Z,33.51
2023-02-08T14:47:29.099Z,33.94
2023-02-08T14:50:16.407Z,33.61
2023-02-08T14:53:13.528Z,34.06
2023-02-08T14:55:46.327Z,33.95
2023-02-08T14:58:20.407Z,34.64
2023-02-08T15:00:51.179Z,34.45
2023-02-08T15:03:19.012Z,34.20
2023-02-08T15:06:23.422Z,34.41
2023-02-08T15:08:52.650Z,34.44
2023-02-08T15:11:22.802Z,33.92
2023-02-08T15:13:51.421Z,34.16
2023-02-08T15:16:19.386Z,34.36
2023-02-08T15:18:48.490Z,34.20
2023-02-08T15:21:21.407Z,34.39
2023-02-08T15:24:00.386Z,33.99
2023-02-08T15:26:28.147Z,33.97
2023-02-08T15:28:56.335Z,34.65
2023-02-08T15:31:28.835Z,34.77
2023-02-08T15:33:58.390Z,34.67
2023-02-08T15:36:31.671Z,34.52
2023-02-08T15:39:01.868Z,34.49
2023-02-08T15:41:38.166Z,34.62
2023-02-08T15:44:24.157Z,34.65
2023-02-08T15:46:55.022Z,34.74
2023-02-08T15:49:41.525Z,34.67
2023-02-08T15:52:15.954Z,35.00
2023-02-08T15:54:44.418Z,35.07
2023-02-08T15:57:29.342Z,35.19
2023-02-08T15:59:57.254Z,35.19
2023-02-08T16:02:32.787Z,35.33
2023-02-08T16:05:01.722Z,35.39
2023-02-08T16:07:37.173Z,35.27
2023-02-08T16:10:06.810Z,35.54
2023-02-08T16:12:34.969Z,35.54
2023-02-08T16:15:02.424Z,35.60
2023-02-08T16:17:38.432Z,35.65
2023-02-08T16:20:30.068Z,35.83
2023-02-08T16:23:02.348Z,35.81
2023-02-08T16:25:29.631Z,35.98
2023-02-08T16:27:57.153Z,36.21
2023-02-08T16:30:25.106Z,36.29
2023-02-08T16:32:52.680Z,36.40
2023-02-08T16:35:33.496Z,36.48
2023-02-08T16:38:02.837Z,36.69
2023-02-08T16:40:32.871Z,36.93
2023-02-08T16:43:26.277Z,37.21
2023-02-08T16:46:17.345Z,37.50
2023-02-08T16:48:55.824Z,37.74
2023-02-08T16:51:27.393Z,37.69
2023-02-08T16:53:57.338Z,38.00
2023-02-08T16:56:25.497Z,38.19
2023-02-08T16:58:53.155Z,38.41
2023-02-08T17:01:22.968Z,38.44
2023-02-08T17:03:52.994Z,38.68
2023-02-08T17:06:30.540Z,39.00
2023-02-08T17:08:58.815Z,39.09
2023-02-08T17:11:26.682Z,39.12
2023-02-08T17:13:54.392Z,39.40
2023-02-08T17:16:24.135Z,39.82
2023-02-08T17:18:52.426Z,40.19
2023-02-08T17:21:19.812Z,40.58
2023-02-08T17:23:47.792Z,40.85
2023-02-08T17:26:17.435Z,40.86
2023-02-08T17:28:44.971Z,40.93
2023-02-08T17:31:13.605Z,41.49
2023-02-08T17:33:41.392Z,41.58
2023-02-08T17:36:10.751Z,42.00
2023-02-08T17:38:39.471Z,42.08
2023-02-08T17:41:18.396Z,41.98
2023-02-08T17:43:49.903Z,41.92
2023-02-08T17:46:20.362Z,42.13
2023-02-08T17:48:48.514Z,42.36
2023-02-08T17:51:18.535Z,42.52
2023-02-08T17:53:46.250Z,42.57
2023-02-08T17:56:16.181Z,42.77
2023-02-08T17:58:44.506Z,42.78
2023-02-08T18:01:18.035Z,42.58
2023-02-08T18:03:46.990Z,42.77
2023-02-08T18:06:15.207Z,42.89
2023-02-08T18:08:43.172Z,43.05
2023-02-08T18:11:13.039Z,43.03
2023-02-08T18:13:40.520Z,43.19
2023-02-08T18:16:16.970Z,42.85
2023-02-08T18:18:44.934Z,42.89
2023-02-08T18:21:17.461Z,43.09
2023-02-08T18:23:46.244Z,43.00
2023-02-08T18:26:16.449Z,43.22
2023-02-08T18:28:44.848Z,43.11
2023-02-08T18:31:15.224Z,43.07
2023-02-08T18:33:43.726Z,43.31
2023-02-08T18:36:12.416Z,43.08
2023-02-08T18:38:41.638Z,43.37
2023-02-08T18:41:10.341Z,43.47
2023-02-08T18:43:39.643Z,43.41
2023-02-08T18:46:09.924Z,43.53
2023-02-08T18:48:38.841Z,43.61
2023-02-08T18:51:07.447Z,43.48
2023-02-08T18:53:37.350Z,43.72
2023-02-08T18:56:06.636Z,43.79
2023-02-08T18:58:34.713Z,43.94
2023-02-08T19:01:11.391Z,43.83
2023-02-08T19:03:39.062Z,44.04
2023-02-08T19:06:09.364Z,44.03
2023-02-08T19:08:37.717Z,44.21
2023-02-08T19:11:06.022Z,44.38
2023-02-08T19:13:35.496Z,44.44
2023-02-08T19:16:02.967Z,44.62
2023-02-08T19:18:30.452Z,44.66
2023-02-08T19:21:10.566Z,44.81
2023-02-08T19:23:38.151Z,44.58
2023-02-08T19:26:14.640Z,44.64
2023-02-08T19:28:42.143Z,44.89
2023-02-08T19:31:15.789Z,44.98
2023-02-08T19:33:45.544Z,45.19
2023-02-08T19:36:19.552Z,45.34
2023-02-08T19:38:48.290Z,45.28
2023-02-08T19:41:22.428Z,45.32
2023-02-08T19:43:50.097Z,45.46
2023-02-08T19:46:22.185Z,45.46
2023-02-08T19:48:50.842Z,45.64
2023-02-08T19:51:19.456Z,45.39
2023-02-08T19:53:47.314Z,45.45
2023-02-08T19:56:16.670Z,45.58
2023-02-08T19:58:45.225Z,45.53
2023-02-08T20:01:20.660Z,45.46
2023-02-08T20:03:50.045Z,45.29
2023-02-08T20:06:24.848Z,45.34
2023-02-08T20:08:53.285Z,45.43
2023-02-08T20:11:25.796Z,45.64
2023-02-08T20:13:54.796Z,45.69
2023-02-08T20:16:22.721Z,45.35
2023-02-08T20:18:50.534Z,45.91
2023-02-08T20:21:18.801Z,45.75
2023-02-08T20:23:47.345Z,46.02
2023-02-08T20:26:26.533Z,46.21
2023-02-08T20:28:58.712Z,46.06
2023-02-08T20:31:31.474Z,46.34
2023-02-08T20:34:03.376Z,46.33
2023-02-08T20:36:33.367Z,46.28
2023-02-08T20:39:01.113Z,46.63
2023-02-08T20:41:31.149Z,46.62
2023-02-08T20:43:58.752Z,46.80
2023-02-08T20:46:30.693Z,46.96
2023-02-08T20:49:00.039Z,46.77
2023-02-08T20:51:28.794Z,46.68
2023-02-08T20:53:57.385Z,46.75
2023-02-08T20:56:27.967Z,47.22
2023-02-08T20:58:55.868Z,47.57
2023-02-08T21:01:27.763Z,46.64
2023-02-08T21:03:56.360Z,47.20
2023-02-08T21:06:32.326Z,47.57
2023-02-08T21:09:03.020Z,47.94
2023-02-08T21:11:31.703Z,47.65
2023-02-08T21:14:00.438Z,47.53
2023-02-08T21:16:28.193Z,47.51
2023-02-08T21:18:57.234Z,47.81
2023-02-08T21:21:25.678Z,47.70
2023-02-08T21:23:53.136Z,48.02
2023-02-08T21:26:21.229Z,48.39
2023-02-08T21:28:52.390Z,48.12
2023-02-08T21:31:22.095Z,48.26
2023-02-08T21:33:50.948Z,47.89
2023-02-08T21:36:21.080Z,48.16
2023-02-08T21:38:48.533Z,48.22
2023-02-08T21:41:20.424Z,48.15
2023-02-08T21:43:48.509Z,48.75
2023-02-08T21:46:17.034Z,48.54
2023-02-08T21:49:03.293Z,48.40
2023-02-08T21:51:49.601Z,48.71
2023-02-08T21:54:31.538Z,48.72
2023-02-08T21:57:00.465Z,48.64
2023-02-08T21:59:28.624Z,48.84
2023-02-08T22:01:56.018Z,48.91
2023-02-08T22:04:23.675Z,49.27
2023-02-08T22:06:52.095Z,48.83
2023-02-08T22:09:20.703Z,48.60
2023-02-08T22:15:30.584Z,49.11
2023-02-08T22:18:00.689Z,49.17
2023-02-08T22:20:29.210Z,49.67
2023-02-08T22:22:56.714Z,49.76
2023-02-08T22:25:24.434Z,50.32
2023-02-08T22:27:51.990Z,49.56
2023-02-08T22:30:19.893Z,49.44
2023-02-08T22:32:49.050Z,49.55
2023-02-08T22:35:17.746Z,49.45
2023-02-08T22:37:45.218Z,49.93
2023-02-08T22:40:13.281Z,49.98
2023-02-08T22:42:41.369Z,50.35
2023-02-08T22:45:09.006Z,50.16
2023-02-08T22:47:36.765Z,49.88
2023-02-08T22:50:05.577Z,49.98
2023-02-08T22:52:34.525Z,49.93
2023-02-08T22:55:04.123Z,50.04
2023-02-08T22:57:32.247Z,49.97
2023-02-08T22:59:59.700Z,49.89
2023-02-08T23:02:27.512Z,50.06
2023-02-08T23:04:54.978Z,50.13
2023-02-08T23:07:22.359Z,50.10
2023-02-08T23:09:50.128Z,50.33
2023-02-08T23:12:17.480Z,50.34
2023-02-08T23:14:44.874Z,50.52
2023-02-08T23:17:12.667Z,50.75
2023-02-08T23:19:40.897Z,50.70
2023-02-08T23:22:08.586Z,50.46
2023-02-08T23:24:36.217Z,50.53
2023-02-08T23:27:03.714Z,50.88
2023-02-08T23:29:31.138Z,50.49
2023-02-08T23:31:58.861Z,50.74
2023-02-08T23:34:26.260Z,50.64
2023-02-08T23:36:53.659Z,50.67
2023-02-08T23:39:21.328Z,50.94
2023-02-08T23:41:48.672Z,50.83
2023-02-08T23:44:16.068Z,51.05
2023-02-08T23:46:43.749Z,50.99
2023-02-08T23:49:11.191Z,50.91
2023-02-08T23:51:38.574Z,51.35
2023-02-08T23:54:06.350Z,51.13
2023-02-08T23:56:33.789Z,51.22
2023-02-08T23:59:01.193Z,51.36
